Time,TemperatureF,DewpointF,PressureIn,WindDirection,WindDirectionDegrees,WindSpeedMPH,WindSpeedGustMPH,Humidity,HourlyPrecipIn,Conditions,Clouds,dailyrainin,SolarRadiationWatts/m^2,SoftwareType,DateUTC
2013-04-28 00:00:00,53.2,46.2,29.96,SSE,155,10.0,12.0,77,0.00,,,0.00,0,Wunderground v.1.15,2013-04-28 05:00:00,
2013-04-28 00:10:00,52.8,46.1,29.96,SSE,153,11.0,11.0,78,0.00,,,0.00,0,Wunderground v.1.15,2013-04-28 05:10:00,
2013-04-28 00:20:00,52.5,46.2,29.96,SSE,149,11.0,11.0,79,0.00,,,0.00,0,Wunderground v.1.15,2013-04-28 05:20:00,
2013-04-28 00:30:00,52.2,45.9,29.96,SSE,153,11.0,11.0,79,0.00,,,0.00,0,Wunderground v.1.15,2013-04-28 05:30:00,
2013-04-28 00:40:00,51.8,45.8,29.96,SE,146,9.0,9.0,80,0.00,,,0.00,0,Wunderground v.1.15,2013-04-28 05:40:00,
2013-04-28 00:50:00,51.7,46.1,29.96,SSE,157,9.0,9.0,81,0.00,,,0.00,0,Wunderground v.1.15,2013-04-28 05:50:00,
2013-04-28 01:00:00,51.5,45.9,29.96,SSE,160,8.0,10.0,81,0.00,,,0.00,0,Wunderground v.1.15,2013-04-28 06:00:00,
2013-04-28 01:10:00,51.1,45.8,29.96,SSE,168,8.0,9.0,82,0.00,,,0.00,0,Wunderground v.1.15,2013-04-28 06:10:00,
2013-04-28 01:20:00,50.9,45.6,29.96,South,173,8.0,8.0,82,0.00,,,0.00,0,Wunderground v.1.15,2013-04-28 06:20:00,
2013-04-28 01:30:00,50.7,45.7,29.96,SSE,159,9.0,12.0,83,0.00,,,0.00,0,Wunderground v.1.15,2013-04-28 06:30:00,
2013-04-28 01:40:00,50.5,45.5,29.96,SSE,156,9.0,9.0,83,0.00,,,0.00,0,Wunderground v.1.15,2013-04-28 06:40:00,
2013-04-28 01:50:00,50.2,45.6,29.96,SSE,155,9.0,9.0,84,0.00,,,0.00,0,Wunderground v.1.15,2013-04-28 06:50:00,
2013-04-28 02:00:00,49.9,45.3,29.96,SSE,166,8.0,8.0,84,0.00,,,0.00,0,Wunderground v.1.15,2013-04-28 07:00:00,
2013-04-28 02:10:00,49.5,45.2,29.96,SSE,164,8.0,8.0,85,0.00,,,0.00,0,Wunderground v.1.15,2013-04-28 07:10:00,
2013-04-28 02:20:00,49.2,45.2,29.96,SSE,158,7.0,7.0,86,0.00,,,0.00,0,Wunderground v.1.15,2013-04-28 07:20:00,
2013-04-28 02:30:00,48.9,44.9,29.95,SSE,161,7.0,7.0,86,0.00,,,0.00,0,Wunderground v.1.15,2013-04-28 07:30:00,
2013-04-28 02:40:00,48.6,44.9,29.95,South,173,6.0,6.0,87,0.00,,,0.00,0,Wunderground v.1.15,2013-04-28 07:40:00,
2013-04-28 02:50:00,48.2,44.8,29.95,SSE,164,6.0,6.0,88,0.00,,,0.00,0,Wunderground v.1.15,2013-04-28 07:50:00,
2013-04-28 03:00:00,48.2,44.5,29.94,SSE,164,7.0,7.0,87,0.00,,,0.00,0,Wunderground v.1.15,2013-04-28 08:00:00,
2013-04-28 03:10:00,47.9,44.5,29.94,South,188,6.0,8.0,88,0.00,,,0.00,0,Wunderground v.1.15,2013-04-28 08:10:00,
2013-04-28 03:20:00,47.5,44.1,29.94,South,186,6.0,7.0,88,0.00,,,0.00,0,Wunderground v.1.15,2013-04-28 08:20:00,
2013-04-28 03:30:00,47.2,43.8,29.94,South,170,6.0,6.0,88,0.00,,,0.00,0,Wunderground v.1.15,2013-04-28 08:30:00,
2013-04-28 03:40:00,47.0,43.9,29.93,South,170,6.0,7.0,89,0.00,,,0.00,0,Wunderground v.1.15,2013-04-28 08:40:00,
2013-04-28 03:50:00,46.9,43.8,29.93,SSE,158,6.0,6.0,89,0.00,,,0.00,0,Wunderground v.1.15,2013-04-28 08:50:00,
2013-04-28 04:00:00,47.0,43.9,29.93,South,180,6.0,7.0,89,0.00,,,0.00,0,Wunderground v.1.15,2013-04-28 09:00:00,
2013-04-28 04:10:00,47.1,44.0,29.93,South,177,5.0,5.0,89,0.00,,,0.00,0,Wunderground v.1.15,2013-04-28 09:10:00,
2013-04-28 04:20:00,46.9,43.8,29.93,SSE,161,6.0,6.0,89,0.00,,,0.00,0,Wunderground v.1.15,2013-04-28 09:20:00,
2013-04-28 04:30:00,46.6,43.8,29.93,South,180,6.0,7.0,90,0.00,,,0.00,0,Wunderground v.1.15,2013-04-28 09:30:00,
2013-04-28 04:40:00,46.3,43.5,29.93,South,181,5.0,6.0,90,0.00,,,0.00,0,Wunderground v.1.15,2013-04-28 09:40:00,
2013-04-28 04:50:00,45.9,43.1,29.93,South,171,5.0,5.0,90,0.00,,,0.00,0,Wunderground v.1.15,2013-04-28 09:50:00,
2013-04-28 05:00:00,45.7,43.2,29.93,South,169,6.0,7.0,91,0.00,,,0.00,0,Wunderground v.1.15,2013-04-28 10:00:00,
2013-04-28 05:10:00,45.8,43.3,29.92,South,177,5.0,6.0,91,0.00,,,0.00,0,Wunderground v.1.15,2013-04-28 10:10:00,
2013-04-28 05:20:00,45.8,43.3,29.92,South,169,6.0,6.0,91,0.00,,,0.00,0,Wunderground v.1.15,2013-04-28 10:20:00,
2013-04-28 05:30:00,45.7,43.2,29.92,South,175,5.0,6.0,91,0.00,,,0.00,0,Wunderground v.1.15,2013-04-28 10:30:00,
2013-04-28 05:40:00,45.4,42.9,29.92,South,172,5.0,5.0,91,0.00,,,0.00,0,Wunderground v.1.15,2013-04-28 10:40:00,
2013-04-28 05:50:00,45.6,43.1,29.92,SSE,147,5.0,6.0,91,0.00,,,0.00,0,Wunderground v.1.15,2013-04-28 10:50:00,
2013-04-28 06:00:00,45.9,43.4,29.91,SSE,156,5.0,8.0,91,0.00,,,0.00,0,Wunderground v.1.15,2013-04-28 11:00:00,
2013-04-28 06:10:00,45.7,43.2,29.91,SSE,165,6.0,7.0,91,0.00,,,0.00,0,Wunderground v.1.15,2013-04-28 11:10:00,
2013-04-28 06:20:00,45.6,43.1,29.91,SSE,156,6.0,8.0,91,0.00,,,0.00,5,Wunderground v.1.15,2013-04-28 11:20:00,
2013-04-28 06:30:00,45.6,43.1,29.91,SSE,157,6.0,7.0,91,0.00,,,0.00,16,Wunderground v.1.15,2013-04-28 11:30:00,
2013-04-28 06:40:00,45.7,43.2,29.91,SSE,161,5.0,5.0,91,0.00,,,0.00,26,Wunderground v.1.15,2013-04-28 11:40:00,
2013-04-28 06:50:00,45.7,43.2,29.91,SSE,153,5.0,6.0,91,0.00,,,0.00,44,Wunderground v.1.15,2013-04-28 11:50:00,
2013-04-28 07:00:00,46.1,43.6,29.91,SSE,161,5.0,7.0,91,0.00,,,0.00,53,Wunderground v.1.15,2013-04-28 12:00:00,
2013-04-28 07:10:00,46.6,44.1,29.91,SSE,157,5.0,5.0,91,0.00,,,0.00,63,Wunderground v.1.15,2013-04-28 12:10:00,
2013-04-28 07:20:00,46.9,44.4,29.91,South,175,5.0,6.0,91,0.00,,,0.00,79,Wunderground v.1.15,2013-04-28 12:20:00,
2013-04-28 07:30:00,47.5,45.0,29.91,SSE,164,6.0,6.0,91,0.00,,,0.00,95,Wunderground v.1.15,2013-04-28 12:30:00,
2013-04-28 07:40:00,48.0,45.5,29.91,South,188,7.0,12.0,91,0.00,,,0.00,91,Wunderground v.1.15,2013-04-28 12:40:00,
2013-04-28 07:50:00,48.4,45.6,29.91,South,176,7.0,7.0,90,0.00,,,0.00,118,Wunderground v.1.15,2013-04-28 12:50:00,
2013-04-28 08:00:00,49.1,46.3,29.91,South,169,6.0,6.0,90,0.00,,,0.00,111,Wunderground v.1.15,2013-04-28 13:00:00,
2013-04-28 08:10:00,49.7,46.6,29.91,South,185,7.0,10.0,89,0.00,,,0.00,200,Wunderground v.1.15,2013-04-28 13:10:00,
2013-04-28 08:20:00,50.6,47.5,29.91,South,171,6.0,6.0,89,0.00,,,0.00,220,Wunderground v.1.15,2013-04-28 13:20:00,
2013-04-28 08:30:00,52.0,48.6,29.90,South,173,6.0,8.0,88,0.00,,,0.00,302,Wunderground v.1.15,2013-04-28 13:30:00,
2013-04-28 08:40:00,53.9,49.5,29.90,SSW,207,9.0,9.0,85,0.00,,,0.00,352,Wunderground v.1.15,2013-04-28 13:40:00,
2013-04-28 08:50:00,55.5,50.4,29.88,South,171,9.0,9.0,83,0.00,,,0.00,376,Wunderground v.1.15,2013-04-28 13:50:00,
2013-04-28 09:00:00,57.0,50.9,29.88,South,185,9.0,9.0,80,0.00,,,0.00,397,Wunderground v.1.15,2013-04-28 14:00:00,
2013-04-28 09:10:00,58.1,51.3,29.88,SSW,193,8.0,9.0,78,0.00,,,0.00,436,Wunderground v.1.15,2013-04-28 14:10:00,
2013-04-28 09:20:00,59.5,51.6,29.87,South,183,11.0,11.0,75,0.00,,,0.00,473,Wunderground v.1.15,2013-04-28 14:20:00,
2013-04-28 09:30:00,60.9,52.2,29.87,South,184,10.0,11.0,73,0.00,,,0.00,501,Wunderground v.1.15,2013-04-28 14:30:00,
2013-04-28 09:40:00,61.3,51.8,29.86,SSW,204,12.0,12.0,71,0.00,,,0.00,529,Wunderground v.1.15,2013-04-28 14:40:00,
2013-04-28 09:50:00,61.9,52.4,29.86,SSW,196,12.0,12.0,71,0.00,,,0.00,540,Wunderground v.1.15,2013-04-28 14:50:00,
2013-04-28 10:00:00,62.6,52.7,29.86,SW,227,11.0,15.0,70,0.00,,,0.00,522,Wunderground v.1.15,2013-04-28 15:00:00,
2013-04-28 10:10:00,63.1,52.8,29.86,SW,223,12.0,14.0,69,0.00,,,0.00,587,Wunderground v.1.15,2013-04-28 15:10:00,
2013-04-28 10:20:00,63.7,52.5,29.86,SSW,200,13.0,13.0,67,0.00,,,0.00,657,Wunderground v.1.15,2013-04-28 15:20:00,
2013-04-28 10:30:00,64.3,52.7,29.85,South,178,14.0,14.0,66,0.00,,,0.00,483,Wunderground v.1.15,2013-04-28 15:30:00,
2013-04-28 10:40:00,65.2,52.3,29.84,South,170,12.0,12.0,63,0.00,,,0.00,592,Wunderground v.1.15,2013-04-28 15:40:00,
2013-04-28 10:50:00,66.1,52.3,29.85,South,175,13.0,15.0,61,0.00,,,0.00,745,Wunderground v.1.15,2013-04-28 15:50:00,
2013-04-28 11:00:00,67.4,51.2,29.85,SSW,199,11.0,11.0,56,0.00,,,0.00,701,Wunderground v.1.15,2013-04-28 16:00:00,
2013-04-28 11:10:00,68.2,49.9,29.85,SW,220,12.0,16.0,52,0.00,,,0.00,744,Wunderground v.1.15,2013-04-28 16:10:00,
2013-04-28 11:20:00,68.5,49.1,29.84,SSW,198,14.0,14.0,50,0.00,,,0.00,696,Wunderground v.1.15,2013-04-28 16:20:00,
2013-04-28 11:30:00,68.8,48.9,29.84,South,184,13.0,13.0,49,0.00,,,0.00,724,Wunderground v.1.15,2013-04-28 16:30:00,
2013-04-28 11:40:00,70.0,47.7,29.84,ESE,113,12.0,12.0,45,0.00,,,0.00,816,Wunderground v.1.15,2013-04-28 16:40:00,
2013-04-28 11:50:00,70.5,47.5,29.83,SSW,198,13.0,13.0,44,0.00,,,0.00,844,Wunderground v.1.15,2013-04-28 16:50:00,
2013-04-28 12:00:00,70.9,48.5,29.83,SSW,200,13.0,16.0,45,0.00,,,0.00,865,Wunderground v.1.15,2013-04-28 17:00:00,
2013-04-28 12:10:00,71.0,48.0,29.83,South,186,13.0,13.0,44,0.00,,,0.00,714,Wunderground v.1.15,2013-04-28 17:10:00,
2013-04-28 12:20:00,71.4,48.9,29.83,SSW,195,13.0,17.0,45,0.00,,,0.00,770,Wunderground v.1.15,2013-04-28 17:20:00,
2013-04-28 12:30:00,72.1,48.4,29.82,South,170,14.0,14.0,43,0.00,,,0.00,687,Wunderground v.1.15,2013-04-28 17:30:00,
2013-04-28 12:40:00,72.3,48.5,29.82,SSW,211,14.0,14.0,43,0.00,,,0.00,742,Wunderground v.1.15,2013-04-28 17:40:00,
2013-04-28 12:50:00,72.4,48.6,29.81,SSW,199,14.0,17.0,43,0.00,,,0.00,679,Wunderground v.1.15,2013-04-28 17:50:00,
2013-04-28 13:00:00,73.1,48.6,29.80,SSW,195,12.0,12.0,42,0.00,,,0.00,803,Wunderground v.1.15,2013-04-28 18:00:00,
2013-04-28 13:10:00,74.2,48.3,29.80,SSE,168,14.0,14.0,40,0.00,,,0.00,819,Wunderground v.1.15,2013-04-28 18:10:00,
2013-04-28 13:20:00,74.2,47.0,29.79,South,191,13.0,13.0,38,0.00,,,0.00,714,Wunderground v.1.15,2013-04-28 18:20:00,
2013-04-28 13:30:00,74.2,47.0,29.79,SSE,159,14.0,15.0,38,0.00,,,0.00,833,Wunderground v.1.15,2013-04-28 18:30:00,
2013-04-28 13:40:00,75.2,46.4,29.78,South,186,14.0,14.0,36,0.00,,,0.00,763,Wunderground v.1.15,2013-04-28 18:40:00,
2013-04-28 13:50:00,75.3,47.2,29.78,SW,218,14.0,14.0,37,0.00,,,0.00,867,Wunderground v.1.15,2013-04-28 18:50:00,
2013-04-28 14:00:00,75.6,45.2,29.78,SSW,197,15.0,20.0,34,0.00,,,0.00,765,Wunderground v.1.15,2013-04-28 19:00:00,
2013-04-28 14:10:00,75.9,47.0,29.78,SSW,205,13.0,13.0,36,0.00,,,0.00,768,Wunderground v.1.15,2013-04-28 19:10:00,
2013-04-28 14:20:00,75.9,44.7,29.78,SSE,166,14.0,14.0,33,0.00,,,0.00,752,Wunderground v.1.15,2013-04-28 19:20:00,
2013-04-28 14:30:00,76.3,45.1,29.77,WSW,244,13.0,13.0,33,0.00,,,0.00,605,Wunderground v.1.15,2013-04-28 19:30:00,
2013-04-28 14:40:00,76.0,47.1,29.77,SSW,208,13.0,13.0,36,0.00,,,0.00,670,Wunderground v.1.15,2013-04-28 19:40:00,
2013-04-28 14:50:00,76.7,46.2,29.76,SSE,168,13.0,19.0,34,0.00,,,0.00,733,Wunderground v.1.15,2013-04-28 19:50:00,
2013-04-28 15:00:00,76.6,45.3,29.76,SSE,167,13.0,13.0,33,0.00,,,0.00,819,Wunderground v.1.15,2013-04-28 20:00:00,
2013-04-28 15:10:00,77.0,45.7,29.75,SW,228,14.0,18.0,33,0.00,,,0.00,721,Wunderground v.1.15,2013-04-28 20:10:00,
2013-04-28 15:20:00,77.4,46.0,29.75,SSW,203,15.0,15.0,33,0.00,,,0.00,731,Wunderground v.1.15,2013-04-28 20:20:00,
2013-04-28 15:30:00,77.9,46.5,29.75,SSW,206,13.0,13.0,33,0.00,,,0.00,740,Wunderground v.1.15,2013-04-28 20:30:00,
2013-04-28 15:40:00,78.1,45.8,29.74,South,178,15.0,15.0,32,0.00,,,0.00,673,Wunderground v.1.15,2013-04-28 20:40:00,
2013-04-28 15:50:00,78.2,46.7,29.74,SSW,197,13.0,13.0,33,0.00,,,0.00,707,Wunderground v.1.15,2013-04-28 20:50:00,
2013-04-28 16:00:00,78.2,45.9,29.74,SSE,156,13.0,13.0,32,0.00,,,0.00,587,Wunderground v.1.15,2013-04-28 21:00:00,
2013-04-28 16:10:00,78.8,45.6,29.73,South,173,13.0,15.0,31,0.00,,,0.00,675,Wunderground v.1.15,2013-04-28 21:10:00,
2013-04-28 16:20:00,78.7,45.5,29.73,SW,225,15.0,15.0,31,0.00,,,0.00,689,Wunderground v.1.15,2013-04-28 21:20:00,
2013-04-28 16:30:00,79.0,46.6,29.72,WSW,238,14.0,14.0,32,0.00,,,0.00,643,Wunderground v.1.15,2013-04-28 21:30:00,
2013-04-28 16:40:00,79.1,45.0,29.72,South,177,13.0,18.0,30,0.00,,,0.00,392,Wunderground v.1.15,2013-04-28 21:40:00,
2013-04-28 16:50:00,78.2,45.9,29.72,South,188,14.0,15.0,32,0.00,,,0.00,237,Wunderground v.1.15,2013-04-28 21:50:00,
2013-04-28 17:00:00,78.0,45.7,29.71,SSW,206,12.0,12.0,32,0.00,,,0.00,508,Wunderground v.1.15,2013-04-28 22:00:00,
2013-04-28 17:10:00,78.5,46.2,29.71,South,169,12.0,12.0,32,0.00,,,0.00,229,Wunderground v.1.15,2013-04-28 22:10:00,
2013-04-28 17:20:00,78.1,45.8,29.71,SW,215,13.0,16.0,32,0.00,,,0.00,413,Wunderground v.1.15,2013-04-28 22:20:00,
2013-04-28 17:30:00,78.6,46.3,29.70,SSW,207,13.0,13.0,32,0.00,,,0.00,506,Wunderground v.1.15,2013-04-28 22:30:00,
2013-04-28 17:40:00,78.9,45.7,29.70,SSW,196,12.0,17.0,31,0.00,,,0.00,410,Wunderground v.1.15,2013-04-28 22:40:00,
2013-04-28 17:50:00,78.4,45.3,29.70,South,180,13.0,13.0,31,0.00,,,0.00,330,Wunderground v.1.15,2013-04-28 22:50:00,
2013-04-28 18:00:00,78.1,45.8,29.70,South,185,13.0,13.0,32,0.00,,,0.00,283,Wunderground v.1.15,2013-04-28 23:00:00,
2013-04-28 18:10:00,77.9,45.7,29.70,South,173,10.0,14.0,32,0.00,,,0.00,265,Wunderground v.1.15,2013-04-28 23:10:00,
2013-04-28 18:20:00,77.5,46.1,29.70,South,180,13.0,13.0,33,0.00,,,0.00,223,Wunderground v.1.15,2013-04-28 23:20:00,
2013-04-28 18:30:00,77.4,46.8,29.70,SSW,199,11.0,14.0,34,0.00,,,0.00,151,Wunderground v.1.15,2013-04-28 23:30:00,
2013-04-28 18:40:00,77.3,46.7,29.70,South,180,12.0,12.0,34,0.00,,,0.00,185,Wunderground v.1.15,2013-04-28 23:40:00,
2013-04-28 18:50:00,77.2,46.7,29.69,South,174,10.0,10.0,34,0.00,,,0.00,142,Wunderground v.1.15,2013-04-28 23:50:00,
2013-04-28 19:00:00,76.8,47.1,29.69,SSE,167,11.0,11.0,35,0.00,,,0.00,98,Wunderground v.1.15,2013-04-29 00:00:00,
2013-04-28 19:10:00,76.1,47.2,29.69,SSE,165,11.0,11.0,36,0.00,,,0.00,58,Wunderground v.1.15,2013-04-29 00:10:00,
2013-04-28 19:20:00,75.3,48.6,29.68,South,180,11.0,11.0,39,0.00,,,0.00,44,Wunderground v.1.15,2013-04-29 00:20:00,
2013-04-28 19:30:00,74.7,48.1,29.69,SSE,154,10.0,11.0,39,0.00,,,0.00,39,Wunderground v.1.15,2013-04-29 00:30:00,
2013-04-28 19:40:00,74.1,48.2,29.68,SSE,157,9.0,12.0,40,0.00,,,0.00,28,Wunderground v.1.15,2013-04-29 00:40:00,
2013-04-28 19:50:00,73.3,48.2,29.69,South,169,10.0,11.0,41,0.00,,,0.00,16,Wunderground v.1.15,2013-04-29 00:50:00,
2013-04-28 20:00:00,72.4,48.6,29.69,SSE,150,10.0,10.0,43,0.00,,,0.00,9,Wunderground v.1.15,2013-04-29 01:00:00,
2013-04-28 20:10:00,71.6,49.1,29.69,SSE,159,10.0,10.0,45,0.00,,,0.00,5,Wunderground v.1.15,2013-04-29 01:10:00,
2013-04-28 20:20:00,70.8,49.0,29.69,South,169,9.0,10.0,46,0.00,,,0.00,0,Wunderground v.1.15,2013-04-29 01:20:00,
2013-04-28 20:30:00,70.1,48.9,29.69,SSE,163,8.0,8.0,47,0.00,,,0.00,0,Wunderground v.1.15,2013-04-29 01:30:00,
2013-04-28 20:40:00,69.4,49.4,29.70,South,172,9.0,9.0,49,0.00,,,0.00,0,Wunderground v.1.15,2013-04-29 01:40:00,
2013-04-28 20:50:00,69.0,49.6,29.70,SSE,150,9.0,9.0,50,0.00,,,0.00,0,Wunderground v.1.15,2013-04-29 01:50:00,
2013-04-28 21:00:00,68.4,49.0,29.70,SSE,165,8.0,8.0,50,0.00,,,0.00,0,Wunderground v.1.15,2013-04-29 02:00:00,
2013-04-28 21:10:00,67.8,49.5,29.71,SSE,162,8.0,8.0,52,0.00,,,0.00,0,Wunderground v.1.15,2013-04-29 02:10:00,
2013-04-28 21:20:00,67.3,49.6,29.71,South,170,7.0,7.0,53,0.00,,,0.00,0,Wunderground v.1.15,2013-04-29 02:20:00,
2013-04-28 21:30:00,66.8,49.6,29.71,SSE,158,8.0,8.0,54,0.00,,,0.00,0,Wunderground v.1.15,2013-04-29 02:30:00,
2013-04-28 21:40:00,66.4,49.7,29.71,SSE,161,8.0,8.0,55,0.00,,,0.00,0,Wunderground v.1.15,2013-04-29 02:40:00,
2013-04-28 21:50:00,66.0,49.8,29.72,SSE,164,8.0,8.0,56,0.00,,,0.00,0,Wunderground v.1.15,2013-04-29 02:50:00,
2013-04-28 22:00:00,65.5,49.9,29.72,SSE,148,9.0,9.0,57,0.00,,,0.00,0,Wunderground v.1.15,2013-04-29 03:00:00,
2013-04-28 22:10:00,65.0,50.3,29.72,SSE,158,10.0,10.0,59,0.00,,,0.00,0,Wunderground v.1.15,2013-04-29 03:10:00,
2013-04-28 22:20:00,64.5,50.3,29.72,South,169,10.0,10.0,60,0.00,,,0.00,0,Wunderground v.1.15,2013-04-29 03:20:00,
2013-04-28 22:30:00,64.1,50.4,29.72,SSE,162,10.0,10.0,61,0.00,,,0.00,0,Wunderground v.1.15,2013-04-29 03:30:00,
2013-04-28 22:40:00,63.8,50.5,29.72,SSE,162,10.0,11.0,62,0.00,,,0.00,0,Wunderground v.1.15,2013-04-29 03:40:00,
2013-04-28 22:50:00,63.5,50.7,29.72,SSE,165,9.0,10.0,63,0.00,,,0.00,0,Wunderground v.1.15,2013-04-29 03:50:00,
2013-04-28 23:00:00,63.2,50.8,29.73,SSE,166,9.0,9.0,64,0.00,,,0.00,0,Wunderground v.1.15,2013-04-29 04:00:00,
2013-04-28 23:10:00,63.0,51.0,29.73,SSE,164,6.0,7.0,65,0.00,,,0.00,0,Wunderground v.1.15,2013-04-29 04:10:00,
2013-04-28 23:20:00,62.9,51.0,29.73,SSE,155,7.0,7.0,65,0.00,,,0.00,0,Wunderground v.1.15,2013-04-29 04:20:00,
2013-04-28 23:30:00,62.6,51.1,29.74,SSE,163,6.0,6.0,66,0.00,,,0.00,0,Wunderground v.1.15,2013-04-29 04:30:00,
2013-04-28 23:40:00,62.3,50.8,29.74,SSE,147,4.0,6.0,66,0.00,,,0.00,0,Wunderground v.1.15,2013-04-29 04:40:00,
2013-04-28 23:50:00,61.9,50.8,29.73,SSE,160,6.0,9.0,67,0.00,,,0.00,0,Wunderground v.1.15,2013-04-29 04:50:00,